createdAt,value
2022-08-12T00:02:05.613Z,16.13
2022-08-12T00:04:53.281Z,16.13
2022-08-12T00:07:40.235Z,16.06
2022-08-12T00:10:27.043Z,16.05
2022-08-12T00:13:15.277Z,16.05
2022-08-12T00:16:04.043Z,16.09
2022-08-12T00:18:50.445Z,16.08
2022-08-12T00:21:38.655Z,16.02
2022-08-12T00:24:27.581Z,15.90
2022-08-12T00:27:15.775Z,15.80
2022-08-12T00:30:03.317Z,15.70
2022-08-12T00:32:54.719Z,15.71
2022-08-12T00:35:44.385Z,15.67
2022-08-12T00:38:32.248Z,15.65
2022-08-12T00:41:21.210Z,15.63
2022-08-12T00:43:49.565Z,15.62
2022-08-12T00:46:32.349Z,15.59
2022-08-12T00:49:02.489Z,15.53
2022-08-12T00:51:50.864Z,15.48
2022-08-12T00:54:21.019Z,15.50
2022-08-12T00:56:51.210Z,15.43
2022-08-12T00:59:19.069Z,15.44
2022-08-12T01:02:10.459Z,15.44
2022-08-12T01:04:57.995Z,15.45
2022-08-12T01:07:46.942Z,15.47
2022-08-12T01:10:38.152Z,15.47
2022-08-12T01:13:20.058Z,15.45
2022-08-12T01:15:56.371Z,15.41
2022-08-12T01:18:30.660Z,15.39
2022-08-12T01:21:17.456Z,15.39
2022-08-12T01:24:34.848Z,15.35
2022-08-12T01:27:08.077Z,15.31
2022-08-12T01:29:43.985Z,15.27
2022-08-12T01:32:15.970Z,15.23
2022-08-12T01:34:57.984Z,15.22
2022-08-12T01:37:28.184Z,15.17
2022-08-12T01:40:35.558Z,15.14
2022-08-12T01:42:52.079Z,15.08
2022-08-12T01:45:24.873Z,15.05
2022-08-12T01:48:35.393Z,14.99
2022-08-12T01:52:21.381Z,14.98
2022-08-12T01:54:29.021Z,15.00
2022-08-12T01:57:13.741Z,15.05
2022-08-12T01:59:59.678Z,15.07
2022-08-12T02:02:48.527Z,15.05
2022-08-12T02:05:57.892Z,14.98
2022-08-12T02:09:16.941Z,14.79
2022-08-12T02:12:27.642Z,14.68
2022-08-12T02:15:27.963Z,14.68
2022-08-12T02:18:12.738Z,14.70
2022-08-12T02:21:02.506Z,14.72
2022-08-12T02:23:37.139Z,14.72
2022-08-12T02:26:09.626Z,14.75
2022-08-12T02:28:39.247Z,14.74
2022-08-12T02:31:09.193Z,14.74
2022-08-12T02:33:39.347Z,14.68
2022-08-12T02:36:07.598Z,14.69
2022-08-12T02:38:36.983Z,14.75
2022-08-12T02:41:10.181Z,14.83
2022-08-12T02:43:49.478Z,14.84
2022-08-12T02:46:28.172Z,14.79
2022-08-12T02:49:25.770Z,14.71
2022-08-12T02:51:55.334Z,14.61
2022-08-12T02:54:25.597Z,14.57
2022-08-12T02:56:54.754Z,14.52
2022-08-12T02:59:26.537Z,14.55
2022-08-12T03:02:03.349Z,14.58
2022-08-12T03:04:41.436Z,14.56
2022-08-12T03:07:33.567Z,14.49
2022-08-12T03:10:37.253Z,14.45
2022-08-12T03:13:08.362Z,14.41
2022-08-12T03:15:37.080Z,14.39
2022-08-12T03:18:35.169Z,14.29
2022-08-12T03:21:03.789Z,14.21
2022-08-12T03:23:32.021Z,14.21
2022-08-12T03:26:02.864Z,14.19
2022-08-12T03:28:55.686Z,14.17
2022-08-12T03:31:32.445Z,14.15
2022-08-12T03:34:07.558Z,14.14
2022-08-12T03:36:38.972Z,14.11
2022-08-12T03:39:18.565Z,14.11
2022-08-12T03:42:09.689Z,14.09
2022-08-12T03:45:26.980Z,14.13
2022-08-12T03:48:25.444Z,14.08
2022-08-12T03:51:13.457Z,14.08
2022-08-12T03:54:01.398Z,14.07
2022-08-12T03:56:48.316Z,14.07
2022-08-12T03:59:34.626Z,14.05
2022-08-12T04:02:02.498Z,14.04
2022-08-12T04:04:35.590Z,14.00
2022-08-12T04:07:10.750Z,13.97
2022-08-12T04:09:43.381Z,13.97
2022-08-12T04:12:39.496Z,13.96
2022-08-12T04:15:13.101Z,13.97
2022-08-12T04:18:06.310Z,14.01
2022-08-12T04:20:32.172Z,14.03
2022-08-12T04:23:01.381Z,14.05
2022-08-12T04:25:32.110Z,14.06
2022-08-12T04:28:13.119Z,14.08
2022-08-12T04:30:41.622Z,14.14
2022-08-12T04:33:13.733Z,14.22
2022-08-12T04:35:41.650Z,14.27
2022-08-12T04:38:10.393Z,14.35
2022-08-12T04:40:39.206Z,14.43
2022-08-12T04:43:07.188Z,14.44
2022-08-12T04:45:55.871Z,14.48
2022-08-12T04:48:23.710Z,14.48
2022-08-12T04:50:51.505Z,14.46
2022-08-12T04:53:19.683Z,14.46
2022-08-12T04:55:48.300Z,14.55
2022-08-12T04:58:16.158Z,14.59
2022-08-12T05:00:57.935Z,14.63
2022-08-12T05:03:27.578Z,14.68
2022-08-12T05:05:58.779Z,14.74
2022-08-12T05:08:26.895Z,14.83
2022-08-12T05:10:55.263Z,14.89
2022-08-12T05:13:27.544Z,14.97
2022-08-12T05:16:04.444Z,15.01
2022-08-12T05:18:39.284Z,15.06
2022-08-12T05:21:09.237Z,15.13
2022-08-12T05:23:39.635Z,15.25
2022-08-12T05:26:07.734Z,15.33
2022-08-12T05:28:36.441Z,15.32
2022-08-12T05:31:04.704Z,15.48
2022-08-12T05:33:41.074Z,15.56
2022-08-12T05:36:15.856Z,15.66
2022-08-12T05:38:58.246Z,15.77
2022-08-12T05:41:35.374Z,15.88
2022-08-12T05:44:10.750Z,15.97
2022-08-12T05:46:38.672Z,16.06
2022-08-12T05:49:06.996Z,16.17
2022-08-12T05:51:40.361Z,16.29
2022-08-12T05:54:11.880Z,16.39
2022-08-12T05:56:43.525Z,16.54
2022-08-12T05:59:12.752Z,16.70
2022-08-12T06:02:09.254Z,16.84
2022-08-12T06:04:31.476Z,16.98
2022-08-12T06:06:59.816Z,17.13
2022-08-12T06:09:30.380Z,17.28
2022-08-12T06:12:05.417Z,17.43
2022-08-12T06:14:39.038Z,17.60
2022-08-12T06:17:10.279Z,17.73
2022-08-12T06:20:28.854Z,17.91
2022-08-12T06:22:26.992Z,18.09
2022-08-12T06:24:55.030Z,18.23
2022-08-12T06:27:22.855Z,18.30
2022-08-12T06:30:08.974Z,18.35
2022-08-12T06:32:51.632Z,18.38
2022-08-12T06:35:48.396Z,18.40
2022-08-12T06:38:23.557Z,18.45
2022-08-12T06:41:20.144Z,18.50
2022-08-12T06:44:06.544Z,18.54
2022-08-12T06:46:39.523Z,18.60
2022-08-12T06:49:08.774Z,18.65
2022-08-12T06:51:36.809Z,18.74
2022-08-12T06:54:04.722Z,18.84
2022-08-12T06:57:02.301Z,18.94
2022-08-12T06:59:21.659Z,19.04
2022-08-12T07:01:51.565Z,19.17
2022-08-12T07:04:37.992Z,19.28
2022-08-12T07:07:10.970Z,19.39
2022-08-12T07:10:03.624Z,19.52
2022-08-12T07:12:32.323Z,19.64
2022-08-12T07:15:01.975Z,19.77
2022-08-12T07:17:36.408Z,19.90
2022-08-12T07:20:29.703Z,20.04
2022-08-12T07:23:04.417Z,20.28
2022-08-12T07:25:37.525Z,20.46
2022-08-12T07:28:17.420Z,20.65
2022-08-12T07:30:51.378Z,20.86
2022-08-12T07:33:24.266Z,21.05
2022-08-12T07:35:54.119Z,21.28
2022-08-12T07:38:33.785Z,21.44
2022-08-12T07:41:15.571Z,21.60
2022-08-12T07:44:04.482Z,21.83
2022-08-12T07:46:39.021Z,22.03
2022-08-12T07:49:15.953Z,22.21
2022-08-12T07:51:45.052Z,22.42
2022-08-12T07:54:13.955Z,22.65
2022-08-12T07:56:43.208Z,22.86
2022-08-12T07:59:11.557Z,23.07
2022-08-12T08:01:40.463Z,23.26
2022-08-12T08:04:27.395Z,23.43
2022-08-12T08:06:55.504Z,23.61
2022-08-12T08:09:24.589Z,23.83
2022-08-12T08:12:18.888Z,24.05
2022-08-12T08:14:50.131Z,24.27
2022-08-12T08:17:18.631Z,24.40
2022-08-12T08:20:03.571Z,24.46
2022-08-12T08:22:41.601Z,24.53
2022-08-12T08:25:35.138Z,24.65
2022-08-12T08:28:19.453Z,24.85
2022-08-12T08:30:50.433Z,25.09
2022-08-12T08:34:04.333Z,25.26
2022-08-12T08:36:23.561Z,25.46
2022-08-12T08:38:53.264Z,25.63
2022-08-12T08:42:17.945Z,25.72
2022-08-12T08:44:38.344Z,25.82
2022-08-12T08:47:09.281Z,25.79
2022-08-12T08:49:38.406Z,25.70
2022-08-12T08:52:09.279Z,25.70
2022-08-12T08:54:38.023Z,25.75
2022-08-12T08:57:08.631Z,26.01
2022-08-12T08:59:37.139Z,26.18
2022-08-12T09:02:07.744Z,26.33
2022-08-12T09:05:12.429Z,26.59
2022-08-12T09:07:58.366Z,26.82
2022-08-12T09:10:30.767Z,26.98
2022-08-12T09:13:23.115Z,27.12
2022-08-12T09:18:45.732Z,27.49
2022-08-12T09:21:14.694Z,27.56
2022-08-12T09:24:01.293Z,27.63
2022-08-12T09:30:10.221Z,27.65
2022-08-12T09:32:17.730Z,27.57
2022-08-12T09:35:01.290Z,27.57
2022-08-12T09:37:55.147Z,27.54
2022-08-12T09:40:57.913Z,27.51
2022-08-12T09:43:26.999Z,27.62
2022-08-12T09:46:06.524Z,27.59
2022-08-12T09:48:55.914Z,27.66
2022-08-12T09:51:37.847Z,27.73
2022-08-12T09:54:33.326Z,27.87
2022-08-12T09:58:07.129Z,27.91
2022-08-12T10:00:15.322Z,28.04
2022-08-12T10:02:58.943Z,28.23
2022-08-12T10:06:26.217Z,28.42
2022-08-12T10:08:17.741Z,28.57
2022-08-12T10:11:07.701Z,28.71
2022-08-12T10:13:42.334Z,28.76
2022-08-12T10:16:29.286Z,28.85
2022-08-12T10:19:03.943Z,29.00
2022-08-12T10:21:38.705Z,29.11
2022-08-12T10:24:10.256Z,29.12
2022-08-12T10:27:00.094Z,29.06
2022-08-12T10:30:11.907Z,28.65
2022-08-12T10:32:44.851Z,28.38
2022-08-12T10:35:16.687Z,28.23
2022-08-12T10:38:35.404Z,28.21
2022-08-12T10:40:55.348Z,28.14
2022-08-12T10:43:54.247Z,28.13
2022-08-12T10:46:30.680Z,28.16
2022-08-12T10:49:06.287Z,28.08
2022-08-12T10:52:03.215Z,28.04
2022-08-12T10:54:33.725Z,28.05
2022-08-12T10:57:04.331Z,28.10
2022-08-12T11:00:31.448Z,28.15
2022-08-12T11:04:27.909Z,28.37
2022-08-12T11:07:07.900Z,28.64
2022-08-12T11:08:35.853Z,28.84
2022-08-12T11:10:51.536Z,28.81
2022-08-12T11:13:20.362Z,28.75
2022-08-12T11:16:22.458Z,28.69
2022-08-12T11:18:55.251Z,28.81
2022-08-12T11:21:31.067Z,28.85
2022-08-12T11:24:30.753Z,28.85
2022-08-12T11:27:07.657Z,28.77
2022-08-12T11:30:00.441Z,28.70
2022-08-12T11:32:25.466Z,28.51
2022-08-12T11:34:54.897Z,28.34
2022-08-12T11:37:26.279Z,28.33
2022-08-12T11:42:46.193Z,28.28
2022-08-12T11:45:16.498Z,28.32
2022-08-12T11:47:45.764Z,28.37
2022-08-12T11:50:19.502Z,28.46
2022-08-12T11:52:55.694Z,28.50
2022-08-12T11:55:29.536Z,28.60
2022-08-12T11:58:34.032Z,28.65
2022-08-12T12:03:43.706Z,28.43
2022-08-12T12:06:21.064Z,28.31
2022-08-12T12:08:53.839Z,28.24
2022-08-12T12:11:24.241Z,28.15
2022-08-12T12:14:08.553Z,28.02
2022-08-12T12:16:39.692Z,27.92
2022-08-12T12:19:10.534Z,27.88
2022-08-12T12:21:47.123Z,27.74
2022-08-12T12:24:21.999Z,27.74
2022-08-12T12:27:00.635Z,27.65
2022-08-12T12:30:18.746Z,27.59
2022-08-12T12:32:19.498Z,27.47
2022-08-12T12:35:44.449Z,27.47
2022-08-12T12:38:11.941Z,27.45
2022-08-12T12:40:50.577Z,27.43
2022-08-12T12:43:29.134Z,27.44
2022-08-12T12:46:06.968Z,27.47
2022-08-12T12:48:36.773Z,27.51
2022-08-12T12:51:49.345Z,27.55
2022-08-12T12:54:09.260Z,27.62
2022-08-12T12:56:42.547Z,27.61
2022-08-12T12:59:55.079Z,27.65
2022-08-12T13:02:07.626Z,27.72
2022-08-12T13:04:37.813Z,27.76
2022-08-12T13:07:06.952Z,27.77
2022-08-12T13:09:36.233Z,27.78
2022-08-12T13:12:10.645Z,27.87
2022-08-12T13:14:40.010Z,27.89
2022-08-12T13:17:14.979Z,27.90
2022-08-12T13:19:48.230Z,27.87
2022-08-12T13:22:23.669Z,27.84
2022-08-12T13:24:56.029Z,27.82
2022-08-12T13:27:35.297Z,27.78
2022-08-12T13:30:12.529Z,27.74
2022-08-12T13:32:56.973Z,27.73
2022-08-12T13:35:33.175Z,27.70
2022-08-12T13:38:26.564Z,27.65
2022-08-12T13:41:11.056Z,27.67
2022-08-12T13:43:40.843Z,27.65
2022-08-12T13:46:17.481Z,27.64
2022-08-12T13:48:46.303Z,27.59
2022-08-12T13:51:15.081Z,27.54
2022-08-12T13:53:58.884Z,27.47
2022-08-12T13:56:34.753Z,27.44
2022-08-12T13:59:07.909Z,27.43
2022-08-12T14:01:40.284Z,27.38
2022-08-12T14:04:12.492Z,27.36
2022-08-12T14:06:41.547Z,27.34
2022-08-12T14:09:18.047Z,27.35
2022-08-12T14:11:58.790Z,27.39
2022-08-12T14:14:31.581Z,27.41
2022-08-12T14:17:10.489Z,27.34
2022-08-12T14:20:00.805Z,27.37
2022-08-12T14:22:30.355Z,27.33
2022-08-12T14:25:01.490Z,27.39
2022-08-12T14:28:03.839Z,27.44
2022-08-12T14:30:29.514Z,27.50
2022-08-12T14:33:02.839Z,27.55
2022-08-12T14:35:33.928Z,27.57
2022-08-12T14:38:26.433Z,27.54
2022-08-12T14:40:59.931Z,27.49
2022-08-12T14:43:44.228Z,27.51
2022-08-12T14:46:24.620Z,27.58
2022-08-12T14:48:55.744Z,27.65
2022-08-12T14:52:43.925Z,27.71
2022-08-12T14:57:20.016Z,27.80
2022-08-12T15:00:10.167Z,27.89
2022-08-12T15:02:40.133Z,27.96
2022-08-12T15:05:08.639Z,28.05
2022-08-12T15:07:49.298Z,28.13
2022-08-12T15:10:25.426Z,28.07
2022-08-12T15:13:07.382Z,28.07
2022-08-12T15:15:45.773Z,28.09
2022-08-12T15:18:22.850Z,28.08
2022-08-12T15:20:56.374Z,28.06
2022-08-12T15:23:33.242Z,28.00
2022-08-12T15:26:28.622Z,27.91
2022-08-12T15:28:59.118Z,27.84
2022-08-12T15:31:27.965Z,27.77
2022-08-12T15:34:14.959Z,27.71
2022-08-12T15:36:54.670Z,27.67
2022-08-12T15:39:23.507Z,27.62
2022-08-12T15:41:55.940Z,27.56
2022-08-12T15:44:41.556Z,27.48
2022-08-12T15:47:10.872Z,27.32
2022-08-12T15:49:54.306Z,27.27
2022-08-12T15:52:30.276Z,27.15
2022-08-12T15:55:05.855Z,27.08
2022-08-12T15:57:41.610Z,26.99
2022-08-12T16:00:32.039Z,26.93
2022-08-12T16:03:05.626Z,26.84
2022-08-12T16:06:19.086Z,26.79
2022-08-12T16:08:29.888Z,26.70
2022-08-12T16:10:57.746Z,26.62
2022-08-12T16:13:34.166Z,26.56
2022-08-12T16:16:24.010Z,26.47
2022-08-12T16:19:01.931Z,26.39
2022-08-12T16:21:52.165Z,26.35
2022-08-12T16:24:20.582Z,26.29
2022-08-12T16:26:51.176Z,26.23
2022-08-12T16:29:52.168Z,26.11
2022-08-12T16:32:24.103Z,26.04
2022-08-12T16:34:55.501Z,26.00
2022-08-12T16:37:33.028Z,25.96
2022-08-12T16:40:15.021Z,25.90
2022-08-12T16:42:53.603Z,25.83
2022-08-12T16:45:32.284Z,25.80
2022-08-12T16:48:33.838Z,25.73
2022-08-12T16:51:12.943Z,25.68
2022-08-12T16:53:43.933Z,25.59
2022-08-12T16:56:17.196Z,25.56
2022-08-12T16:58:52.252Z,25.52
2022-08-12T17:01:21.214Z,25.49
2022-08-12T17:04:09.231Z,25.46
2022-08-12T17:06:47.996Z,25.41
2022-08-12T17:09:16.987Z,25.34
2022-08-12T17:11:49.735Z,25.27
2022-08-12T17:14:23.556Z,25.21
2022-08-12T17:16:55.729Z,25.16
2022-08-12T17:20:28.810Z,25.10
2022-08-12T17:22:21.677Z,25.03
2022-08-12T17:24:58.975Z,24.96
2022-08-12T17:27:40.895Z,24.90
2022-08-12T17:30:13.277Z,24.80
2022-08-12T17:32:53.340Z,24.73
2022-08-12T17:35:30.067Z,24.63
2022-08-12T17:38:11.509Z,24.55
2022-08-12T17:40:47.023Z,24.45
2022-08-12T17:43:57.020Z,24.33
2022-08-12T17:46:13.210Z,24.23
2022-08-12T17:48:54.926Z,24.12
2022-08-12T17:51:25.745Z,24.06
2022-08-12T17:54:10.692Z,24.00
2022-08-12T17:56:43.202Z,23.95
2022-08-12T17:59:12.316Z,23.85
2022-08-12T18:01:45.686Z,23.80
2022-08-12T18:04:23.421Z,23.67
2022-08-12T18:07:06.388Z,23.63
2022-08-12T18:09:37.793Z,23.58
2022-08-12T18:12:26.680Z,23.59
2022-08-12T18:15:26.157Z,23.57
2022-08-12T18:17:59.922Z,23.51
2022-08-12T18:20:30.963Z,23.47
2022-08-12T18:23:05.364Z,23.39
2022-08-12T18:26:16.896Z,23.36
2022-08-12T18:28:44.754Z,23.31
2022-08-12T18:31:23.434Z,23.29
2022-08-12T18:33:52.560Z,23.27
2022-08-12T18:36:23.450Z,23.18
2022-08-12T18:38:59.676Z,23.07
2022-08-12T18:41:36.051Z,22.98
2022-08-12T18:44:10.405Z,22.89
2022-08-12T18:46:53.995Z,22.80
2022-08-12T18:49:33.478Z,22.74
2022-08-12T18:52:08.088Z,22.72
2022-08-12T18:54:49.785Z,22.70
2022-08-12T18:58:07.583Z,22.71
2022-08-12T19:00:20.862Z,22.69
2022-08-12T19:02:53.180Z,22.65
2022-08-12T19:05:54.148Z,22.63
2022-08-12T19:08:14.692Z,22.64
2022-08-12T19:10:50.054Z,22.64
2022-08-12T19:13:42.747Z,22.62
2022-08-12T19:16:12.651Z,22.58
2022-08-12T19:18:45.134Z,22.52
2022-08-12T19:21:16.809Z,22.48
2022-08-12T19:24:09.080Z,22.45
2022-08-12T19:26:38.733Z,22.43
2022-08-12T19:29:08.435Z,22.41
2022-08-12T19:31:57.530Z,22.38
2022-08-12T19:35:54.012Z,22.32
2022-08-12T19:38:06.744Z,22.27
2022-08-12T19:40:32.316Z,22.18
2022-08-12T19:43:20.354Z,22.16
2022-08-12T19:45:54.528Z,22.12
2022-08-12T19:48:32.756Z,22.11
2022-08-12T19:51:22.653Z,22.03
2022-08-12T19:53:57.278Z,22.04
2022-08-12T19:56:28.464Z,21.98
2022-08-12T19:59:21.068Z,21.95
2022-08-12T20:02:03.226Z,21.93
2022-08-12T20:04:38.048Z,21.93
2022-08-12T20:07:23.683Z,21.95
2022-08-12T20:09:54.259Z,21.93
2022-08-12T20:12:31.828Z,21.84
2022-08-12T20:15:05.346Z,21.81
2022-08-12T20:17:36.387Z,21.80
2022-08-12T20:20:27.576Z,21.77
2022-08-12T20:22:55.887Z,21.73
2022-08-12T20:25:28.555Z,21.70
2022-08-12T20:28:12.172Z,21.66
2022-08-12T20:30:53.457Z,21.59
2022-08-12T20:33:50.143Z,21.50
2022-08-12T20:36:40.693Z,21.46
2022-08-12T20:39:37.508Z,21.44
2022-08-12T20:42:02.376Z,21.43
2022-08-12T20:44:30.655Z,21.43
2022-08-12T20:47:18.336Z,21.40
2022-08-12T20:49:56.033Z,21.40
2022-08-12T20:52:30.496Z,21.42
2022-08-12T20:55:05.344Z,21.40
2022-08-12T20:58:03.012Z,21.41
2022-08-12T21:00:31.874Z,21.41
2022-08-12T21:03:21.054Z,21.42
2022-08-12T21:06:13.327Z,21.41
2022-08-12T21:08:43.529Z,21.45
2022-08-12T21:11:11.659Z,21.48
2022-08-12T21:13:41.756Z,21.49
2022-08-12T21:16:10.562Z,21.48
2022-08-12T21:18:39.359Z,21.44
2022-08-12T21:21:23.591Z,21.40
2022-08-12T21:23:52.421Z,21.36
2022-08-12T21:26:26.414Z,21.33
2022-08-12T21:29:01.322Z,21.29
2022-08-12T21:32:37.136Z,21.26
2022-08-12T21:34:22.999Z,21.24
2022-08-12T21:36:54.247Z,21.28
2022-08-12T21:39:35.304Z,21.26
2022-08-12T21:42:07.569Z,21.28
2022-08-12T21:45:46.287Z,21.19
2022-08-12T21:47:28.859Z,21.07
2022-08-12T21:50:06.806Z,21.01
2022-08-12T21:52:43.370Z,20.93
2022-08-12T21:55:19.471Z,20.90
2022-08-12T21:57:53.861Z,20.84
2022-08-12T22:00:33.073Z,20.86
2022-08-12T22:04:03.319Z,20.93
2022-08-12T22:06:31.396Z,20.99
2022-08-12T22:09:17.028Z,21.00
2022-08-12T22:11:56.163Z,21.00
2022-08-12T22:14:30.603Z,21.01
2022-08-12T22:17:00.678Z,21.02
2022-08-12T22:19:28.807Z,21.04
2022-08-12T22:22:04.019Z,21.06
2022-08-12T22:24:34.664Z,21.09
2022-08-12T22:27:18.482Z,21.08
2022-08-12T22:30:16.664Z,21.06
2022-08-12T22:32:50.211Z,21.02
2022-08-12T22:35:47.376Z,20.98
2022-08-12T22:38:25.431Z,20.98
2022-08-12T22:41:00.683Z,20.98
2022-08-12T22:43:59.929Z,20.98
2022-08-12T22:46:32.867Z,20.99
2022-08-12T22:49:01.083Z,21.01
2022-08-12T22:51:57.732Z,21.02
2022-08-12T22:54:36.563Z,21.02
2022-08-12T22:57:12.401Z,20.97
2022-08-12T22:59:55.305Z,20.94
2022-08-12T23:02:29.864Z,20.93
2022-08-12T23:05:12.370Z,20.88
2022-08-12T23:07:59.146Z,20.83
2022-08-12T23:10:28.421Z,20.78
2022-08-12T23:13:15.220Z,20.75
2022-08-12T23:15:47.785Z,20.71
2022-08-12T23:18:22.688Z,20.67
2022-08-12T23:21:01.091Z,20.61
2022-08-12T23:23:28.984Z,20.58
2022-08-12T23:26:17.315Z,20.57
2022-08-12T23:29:25.710Z,20.52
2022-08-12T23:32:03.361Z,20.52
2022-08-12T23:34:37.393Z,20.48
2022-08-12T23:37:08.100Z,20.44
2022-08-12T23:40:13.324Z,20.41
2022-08-12T23:42:30.858Z,20.42
2022-08-12T23:45:03.613Z,20.46
2022-08-12T23:47:53.112Z,20.51
2022-08-12T23:50:22.788Z,20.62
2022-08-12T23:52:54.680Z,20.70
2022-08-12T23:55:28.874Z,20.84
2022-08-12T23:58:20.653Z,20.90
